Time;durP1;ratioP1;P1;durP2;ratioP2;P2;SDS_P1;SDS_P2;PMS_P1;PMS_P2;Temp;Humidity;BMP_temperature;BMP_pressure;BME280_temperature;BME280_humidity;BME280_pressure;Samples;Min_cycle;Max_cycle;Signal;HPM_P1;HPM_P2
2022/12/26 00:02:33;;;;;;;7.97;5.43;;;13.30;97.10;;;;;;4987807;28;20216;-95
2022/12/26 00:05:01;;;;;;;6.80;4.83;;;13.30;97.20;;;;;;4997647;28;20209;-95
2022/12/26 00:07:28;;;;;;;6.97;4.70;;;13.30;97.10;;;;;;4993600;28;20217;-94
2022/12/26 00:10:02;;;;;;;7.90;5.07;;;13.30;97.10;;;;;;4998217;28;20230;-94
2022/12/26 00:12:34;;;;;;;8.57;4.57;;;13.30;97.10;;;;;;4988365;28;20259;-94
2022/12/26 00:15:06;;;;;;;8.60;5.17;;;13.30;97.00;;;;;;5000743;28;20207;-95
2022/12/26 00:17:36;;;;;;;6.97;4.60;;;13.30;97.10;;;;;;5001714;28;20203;-94
2022/12/26 00:20:05;;;;;;;7.97;4.43;;;13.30;97.00;;;;;;5002288;28;20237;-94
2022/12/26 00:22:37;;;;;;;7.07;5.27;;;13.30;97.10;;;;;;5000266;28;20217;-96
2022/12/26 00:25:07;;;;;;;7.00;4.77;;;13.30;97.10;;;;;;4984278;28;20690;-94
2022/12/26 00:27:38;;;;;;;5.63;4.17;;;13.30;97.10;;;;;;4999423;28;20198;-94
2022/12/26 00:30:07;;;;;;;8.07;5.27;;;13.30;97.10;;;;;;5000022;28;20209;-94
2022/12/26 00:32:38;;;;;;;5.57;4.47;;;13.30;97.10;;;;;;4998404;28;20214;-95
2022/12/26 00:35:10;;;;;;;8.47;5.03;;;13.20;97.10;;;;;;4986921;28;20210;-93
2022/12/26 00:37:39;;;;;;;8.43;5.40;;;13.30;97.10;;;;;;4997451;28;20285;-94
2022/12/26 00:40:14;;;;;;;6.63;4.87;;;13.20;97.00;;;;;;4995525;28;20231;-94
2022/12/26 00:42:42;;;;;;;13.93;6.80;;;13.30;97.10;;;;;;4994511;28;20205;-95
2022/12/26 00:45:19;;;;;;;11.87;5.30;;;13.20;96.90;;;;;;4992180;28;20206;-95
2022/12/26 00:47:55;;;;;;;10.67;5.90;;;13.20;96.90;;;;;;4997714;28;20205;-95
2022/12/26 00:50:25;;;;;;;7.73;4.17;;;13.20;96.80;;;;;;4994469;28;20233;-95
2022/12/26 00:52:55;;;;;;;11.47;5.50;;;13.20;96.80;;;;;;4999813;28;20208;-94
2022/12/26 00:55:25;;;;;;;8.37;4.50;;;13.20;96.80;;;;;;4997997;28;20244;-95
2022/12/26 00:57:58;;;;;;;9.07;5.23;;;13.20;96.80;;;;;;5010385;28;20204;-95
2022/12/26 01:00:30;;;;;;;10.77;5.53;;;13.20;96.80;;;;;;5009253;28;20207;-94
2022/12/26 01:02:59;;;;;;;7.67;4.40;;;13.10;96.60;;;;;;5012798;28;20235;-95
2022/12/26 01:05:28;;;;;;;7.13;5.10;;;13.10;96.50;;;;;;5010442;28;20243;-94
2022/12/26 01:07:56;;;;;;;9.07;5.03;;;13.10;96.50;;;;;;4977102;28;20220;-94
2022/12/26 01:10:28;;;;;;;8.33;4.27;;;13.10;96.40;;;;;;4988203;28;20215;-93
2022/12/26 01:12:58;;;;;;;6.10;3.83;;;13.00;96.40;;;;;;4990716;28;20267;-95
2022/12/26 01:15:31;;;;;;;7.27;4.57;;;13.00;96.40;;;;;;4999064;28;20600;-95
2022/12/26 01:18:04;;;;;;;6.87;4.53;;;13.00;96.40;;;;;;4997743;28;20648;-95
2022/12/26 01:20:33;;;;;;;7.67;4.57;;;13.00;96.80;;;;;;4989612;28;20204;-95
2022/12/26 01:23:02;;;;;;;7.03;4.53;;;13.00;96.40;;;;;;4992084;28;20671;-95
2022/12/26 01:25:34;;;;;;;9.47;5.23;;;12.90;96.40;;;;;;4997392;28;20310;-95
2022/12/26 01:28:01;;;;;;;8.47;4.37;;;12.90;96.40;;;;;;4997033;28;20203;-94
2022/12/26 01:30:33;;;;;;;7.77;4.73;;;12.90;96.30;;;;;;4996915;28;20257;-94
2022/12/26 01:33:05;;;;;;;6.20;4.17;;;12.90;96.30;;;;;;4979051;28;20562;-95
2022/12/26 01:35:37;;;;;;;5.93;4.10;;;12.90;96.20;;;;;;4997456;28;20294;-95
2022/12/26 01:38:04;;;;;;;7.27;4.30;;;12.90;96.30;;;;;;4997473;28;20213;-93
2022/12/26 01:40:33;;;;;;;6.60;4.47;;;12.90;96.20;;;;;;4997863;28;20257;-95
2022/12/26 01:43:13;;;;;;;7.37;4.50;;;12.90;96.20;;;;;;4998687;28;20203;-95
2022/12/26 01:45:40;;;;;;;6.30;3.90;;;12.90;96.20;;;;;;4992145;28;20199;-94
2022/12/26 01:48:19;;;;;;;12.17;6.20;;;12.80;96.00;;;;;;4998958;28;20231;-94
2022/12/26 01:50:54;;;;;;;6.60;4.33;;;12.80;96.10;;;;;;4997707;28;20678;-94
2022/12/26 01:53:29;;;;;;;7.90;4.30;;;12.80;96.10;;;;;;4997557;28;20261;-94
2022/12/26 01:56:04;;;;;;;8.40;4.60;;;12.70;96.10;;;;;;4999387;28;20233;-95
2022/12/26 01:58:36;;;;;;;11.67;5.23;;;12.70;96.10;;;;;;4997144;28;20207;-95
2022/12/26 02:01:06;;;;;;;9.00;4.63;;;12.70;96.10;;;;;;5006884;28;20238;-95
2022/12/26 02:06:21;;;;;;;9.10;4.67;;;12.60;96.10;;;;;;4995528;28;20334;-96
2022/12/26 02:08:49;;;;;;;7.57;4.23;;;12.60;96.10;;;;;;4994616;28;20313;-93
2022/12/26 02:11:21;;;;;;;8.67;4.93;;;12.60;96.10;;;;;;4985055;28;20219;-94
2022/12/26 02:13:53;;;;;;;7.63;4.07;;;12.60;96.20;;;;;;4995424;28;20614;-94
2022/12/26 02:16:21;;;;;;;7.10;3.77;;;12.50;96.10;;;;;;4994248;28;20218;-93
2022/12/26 02:19:04;;;;;;;7.73;4.10;;;12.50;96.10;;;;;;5004823;28;20231;-93
2022/12/26 02:22:10;;;;;;;6.60;3.37;;;12.50;96.20;;;;;;5012466;28;20198;-94
2022/12/26 02:25:29;;;;;;;4.93;3.13;;;12.40;96.30;;;;;;5000940;28;20269;-95
2022/12/26 02:28:36;;;;;;;6.17;3.57;;;12.40;96.30;;;;;;5006528;28;20202;-94
2022/12/26 02:31:32;;;;;;;7.07;3.70;;;12.40;96.30;;;;;;4999098;28;20298;-94
2022/12/26 02:34:10;;;;;;;6.13;3.37;;;12.40;96.40;;;;;;4997398;28;20780;-93
2022/12/26 02:37:01;;;;;;;5.73;3.27;;;12.40;96.40;;;;;;4997935;28;20631;-94
2022/12/26 02:39:47;;;;;;;8.27;4.47;;;12.40;96.50;;;;;;4993085;28;20230;-94
2022/12/26 02:42:24;;;;;;;7.10;3.67;;;12.40;96.50;;;;;;4979728;28;20256;-93
2022/12/26 02:47:50;;;;;;;5.97;2.80;;;12.40;96.50;;;;;;4994772;28;20280;-94
2022/12/26 03:13:24;;;;;;;5.20;2.60;;;12.40;97.00;;;;;;4995026;28;20700;-95
2022/12/26 03:18:45;;;;;;;7.27;2.97;;;12.30;96.90;;;;;;4983766;28;20205;-94
2022/12/26 03:21:18;;;;;;;7.97;3.43;;;12.40;96.90;;;;;;4993491;28;20210;-94
2022/12/26 03:23:49;;;;;;;3.40;2.47;;;12.40;96.80;;;;;;4979107;28;20211;-94
2022/12/26 03:26:42;;;;;;;5.83;2.80;;;12.40;96.80;;;;;;4993104;28;20253;-94
2022/12/26 03:32:03;;;;;;;5.83;2.30;;;12.40;96.80;;;;;;4995373;28;20682;-94
2022/12/26 03:34:41;;;;;;;4.63;2.43;;;12.40;96.80;;;;;;5003989;28;20210;-94
2022/12/26 03:37:42;;;;;;;5.93;2.50;;;12.40;96.90;;;;;;5004837;28;20273;-92
2022/12/26 04:20:37;;;;;;;5.77;3.00;;;12.40;96.80;;;;;;4991735;28;20242;-95
2022/12/26 04:46:07;;;;;;;5.17;2.40;;;12.50;96.80;;;;;;5003441;28;20252;-95
2022/12/26 04:51:32;;;;;;;6.90;3.00;;;12.40;96.80;;;;;;5017048;28;20205;-95
2022/12/26 04:54:10;;;;;;;5.87;3.00;;;12.40;96.80;;;;;;5011765;28;20701;-94
2022/12/26 04:56:37;;;;;;;5.33;2.80;;;12.50;96.80;;;;;;5002746;28;20639;-94
2022/12/26 04:59:09;;;;;;;5.37;3.10;;;12.50;96.70;;;;;;4984072;28;20211;-94
2022/12/26 05:10:08;;;;;;;4.83;2.83;;;12.50;96.70;;;;;;4996670;28;20233;-95
2022/12/26 05:12:41;;;;;;;5.63;2.90;;;12.60;96.70;;;;;;5002514;28;20292;-93
2022/12/26 05:15:15;;;;;;;3.83;2.47;;;12.60;96.60;;;;;;5002794;28;20925;-95
2022/12/26 05:29:00;;;;;;;7.80;3.17;;;12.60;96.40;;;;;;4998386;28;20214;-94
2022/12/26 05:31:46;;;;;;;4.23;2.67;;;12.60;96.30;;;;;;5000451;28;20276;-95
2022/12/26 05:34:19;;;;;;;6.47;3.20;;;12.60;96.30;;;;;;4986357;28;20285;-95
2022/12/26 05:36:49;;;;;;;4.53;2.60;;;12.60;96.20;;;;;;5002268;28;20234;-94
2022/12/26 05:39:16;;;;;;;5.57;2.47;;;12.60;96.20;;;;;;5001183;28;20231;-94
2022/12/26 05:41:48;;;;;;;6.37;2.93;;;12.60;96.20;;;;;;4999629;28;20292;-94
2022/12/26 05:44:20;;;;;;;6.77;3.07;;;12.60;96.10;;;;;;5003244;28;20210;-95
2022/12/26 05:46:47;;;;;;;7.60;3.27;;;12.60;96.10;;;;;;5012544;28;20214;-95
2022/12/26 05:49:18;;;;;;;4.23;2.17;;;12.60;96.10;;;;;;5013809;28;20220;-95
2022/12/26 05:51:51;;;;;;;5.23;2.47;;;12.60;96.10;;;;;;4987830;28;20229;-94
2022/12/26 05:54:27;;;;;;;3.87;2.07;;;12.60;96.20;;;;;;5000470;28;20206;-95
2022/12/26 05:56:56;;;;;;;10.10;3.53;;;12.60;96.10;;;;;;5003186;28;20197;-95
2022/12/26 05:59:27;;;;;;;7.67;3.17;;;12.60;96.20;;;;;;5001372;28;20226;-94
2022/12/26 06:02:14;;;;;;;7.50;3.00;;;12.60;96.20;;;;;;5004848;28;20717;-95
2022/12/26 06:04:53;;;;;;;7.30;2.33;;;12.60;96.20;;;;;;5003916;28;20211;-94
2022/12/26 06:07:23;;;;;;;5.57;2.80;;;12.60;96.20;;;;;;5000600;28;20263;-95
2022/12/26 06:09:52;;;;;;;7.60;2.87;;;12.60;96.20;;;;;;4999400;28;20563;-95
2022/12/26 06:12:28;;;;;;;7.90;3.40;;;12.60;96.20;;;;;;4999659;28;20202;-93
2022/12/26 06:14:58;;;;;;;6.90;2.93;;;12.60;96.20;;;;;;4997926;28;20203;-94
2022/12/26 06:17:27;;;;;;;8.97;3.17;;;12.60;96.30;;;;;;4999612;28;20704;-94
2022/12/26 06:19:56;;;;;;;5.17;2.40;;;12.60;96.30;;;;;;4998557;28;20245;-95
2022/12/26 06:22:24;;;;;;;7.90;3.10;;;12.60;96.20;;;;;;4998397;28;20643;-95
2022/12/26 06:24:53;;;;;;;7.00;2.63;;;12.60;96.20;;;;;;4997764;28;20210;-94
2022/12/26 06:27:23;;;;;;;9.10;3.37;;;12.60;96.20;;;;;;4997550;28;20214;-94
2022/12/26 06:29:54;;;;;;;10.00;3.33;;;12.70;96.30;;;;;;4994682;28;20206;-94
2022/12/26 06:32:25;;;;;;;5.73;2.67;;;12.60;96.20;;;;;;4983023;28;20204;-94
2022/12/26 06:35:05;;;;;;;4.83;2.53;;;12.60;96.10;;;;;;4988687;28;20745;-95
2022/12/26 06:37:35;;;;;;;7.50;3.13;;;12.70;96.10;;;;;;4981741;28;20207;-96
2022/12/26 06:40:07;;;;;;;7.87;3.33;;;12.70;96.10;;;;;;4991541;28;20284;-94
2022/12/26 06:42:44;;;;;;;6.97;2.60;;;12.70;96.00;;;;;;4999812;28;20213;-95
2022/12/26 06:45:18;;;;;;;14.67;4.33;;;12.60;95.90;;;;;;4998098;28;20199;-94
2022/12/26 06:47:47;;;;;;;8.77;3.87;;;12.70;95.90;;;;;;5002688;28;20225;-94
2022/12/26 06:50:21;;;;;;;5.07;2.40;;;12.70;96.00;;;;;;5011356;28;20203;-94
2022/12/26 06:53:00;;;;;;;5.57;2.93;;;12.70;95.80;;;;;;4998762;28;20296;-95
2022/12/26 06:55:32;;;;;;;5.00;2.33;;;12.70;95.80;;;;;;4996655;28;20202;-93
2022/12/26 06:58:09;;;;;;;7.83;2.63;;;12.70;95.80;;;;;;4995575;28;20202;-94
2022/12/26 07:00:44;;;;;;;7.80;2.80;;;12.70;95.70;;;;;;4978546;28;20238;-94
2022/12/26 07:03:15;;;;;;;6.73;2.63;;;12.70;95.70;;;;;;4983992;28;20226;-95
2022/12/26 07:06:21;;;;;;;2.63;1.80;;;12.70;95.80;;;;;;4998041;28;20203;-96
2022/12/26 07:09:03;;;;;;;4.63;1.93;;;12.70;95.70;;;;;;4995896;28;20222;-94
2022/12/26 07:11:40;;;;;;;9.30;3.17;;;12.70;95.60;;;;;;4993716;28;20211;-94
2022/12/26 07:14:09;;;;;;;7.43;2.60;;;12.70;95.60;;;;;;5002699;28;20313;-94
2022/12/26 07:16:44;;;;;;;6.97;2.83;;;12.70;95.60;;;;;;5005693;28;20546;-94
2022/12/26 07:19:14;;;;;;;11.27;2.90;;;12.70;95.70;;;;;;4998842;28;20214;-95
2022/12/26 07:21:45;;;;;;;6.47;2.40;;;12.70;95.80;;;;;;4999401;28;20231;-96
2022/12/26 07:24:18;;;;;;;6.03;2.33;;;12.70;95.80;;;;;;4999822;28;20294;-95
2022/12/26 07:27:04;;;;;;;4.33;2.17;;;12.70;95.90;;;;;;4999955;28;20274;-94
2022/12/26 07:29:31;;;;;;;9.30;2.93;;;12.70;96.00;;;;;;4972421;28;20207;-94
2022/12/26 07:32:05;;;;;;;8.07;2.40;;;12.80;96.00;;;;;;5000929;28;20294;-95
2022/12/26 07:34:39;;;;;;;5.87;2.37;;;12.80;96.10;;;;;;4993963;28;20241;-93
2022/12/26 07:37:17;;;;;;;10.83;2.93;;;12.70;96.10;;;;;;4979193;28;20206;-94
2022/12/26 07:39:54;;;;;;;11.30;3.47;;;12.70;96.10;;;;;;5002249;28;20209;-94
2022/12/26 07:42:26;;;;;;;7.43;2.40;;;12.70;96.10;;;;;;5009120;28;20191;-95
2022/12/26 07:45:00;;;;;;;8.77;2.73;;;12.80;96.10;;;;;;5000990;28;20214;-94
2022/12/26 07:47:30;;;;;;;6.87;2.23;;;12.80;96.20;;;;;;4983273;28;20226;-93
2022/12/26 07:49:58;;;;;;;9.40;2.20;;;12.80;96.20;;;;;;4994193;28;20907;-93
2022/12/26 07:52:27;;;;;;;9.53;2.57;;;12.80;96.20;;;;;;4991085;28;20214;-93
2022/12/26 07:55:05;;;;;;;9.90;2.37;;;12.80;96.30;;;;;;4993792;28;20546;-95
2022/12/26 07:57:34;;;;;;;7.97;2.47;;;12.80;96.70;;;;;;4992727;28;20257;-95
2022/12/26 08:00:05;;;;;;;6.37;2.63;;;12.80;96.40;;;;;;4994093;28;20227;-95
2022/12/26 08:02:39;;;;;;;12.07;2.60;;;12.80;96.40;;;;;;4987515;28;20254;-95
2022/12/26 08:05:08;;;;;;;12.60;3.33;;;12.80;96.50;;;;;;4996102;28;20301;-95
2022/12/26 08:07:39;;;;;;;9.90;2.67;;;12.90;96.40;;;;;;4997086;28;20639;-95
2022/12/26 08:10:11;;;;;;;8.53;2.93;;;12.80;96.40;;;;;;4997112;28;20188;-94
2022/12/26 08:12:40;;;;;;;6.87;2.43;;;12.90;96.40;;;;;;4997251;28;20208;-93
2022/12/26 08:15:14;;;;;;;6.57;2.30;;;12.90;96.40;;;;;;4997106;28;20222;-95
2022/12/26 08:17:42;;;;;;;8.83;2.33;;;12.90;96.40;;;;;;4981012;28;20198;-95
2022/12/26 08:20:13;;;;;;;5.60;2.20;;;12.90;96.40;;;;;;4998708;28;20310;-93
2022/12/26 08:22:42;;;;;;;5.73;2.10;;;12.90;96.30;;;;;;4990118;28;20294;-94
2022/12/26 08:25:12;;;;;;;8.60;2.60;;;12.90;96.20;;;;;;4986883;28;20203;-94
2022/12/26 08:27:39;;;;;;;4.13;1.80;;;12.90;96.30;;;;;;4995656;28;20203;-94
2022/12/26 08:30:09;;;;;;;11.30;3.20;;;12.90;96.20;;;;;;4996888;28;20254;-94
2022/12/26 08:32:37;;;;;;;10.37;3.30;;;12.90;96.30;;;;;;4994567;28;20216;-93
2022/12/26 08:35:08;;;;;;;6.93;2.50;;;12.90;96.40;;;;;;4995875;28;20199;-94
2022/12/26 08:40:43;;;;;;;7.50;1.93;;;12.90;95.70;;;;;;4987932;28;20249;-95
2022/12/26 08:43:19;;;;;;;4.00;1.57;;;12.90;95.40;;;;;;4993988;28;20237;-93
2022/12/26 08:45:49;;;;;;;5.63;1.97;;;12.90;94.80;;;;;;4991870;28;20220;-95
2022/12/26 08:48:24;;;;;;;5.30;1.83;;;12.80;94.40;;;;;;4996717;28;20229;-93
2022/12/26 08:51:07;;;;;;;5.83;1.77;;;12.80;94.10;;;;;;4982794;28;20670;-95
2022/12/26 08:53:42;;;;;;;9.50;2.50;;;12.80;94.00;;;;;;4997387;28;20606;-94
2022/12/26 08:56:18;;;;;;;4.67;1.57;;;12.70;93.60;;;;;;4993068;28;20207;-92
2022/12/26 08:58:58;;;;;;;10.13;2.70;;;12.70;93.70;;;;;;4983523;28;20207;-95
2022/12/26 09:01:29;;;;;;;9.03;1.93;;;12.70;93.70;;;;;;4997152;28;20222;-95
2022/12/26 09:04:00;;;;;;;12.80;3.13;;;12.60;93.70;;;;;;5001875;28;20206;-93
2022/12/26 09:06:29;;;;;;;10.03;2.47;;;12.50;94.00;;;;;;5001401;28;20624;-95
2022/12/26 09:09:06;;;;;;;9.67;2.80;;;12.50;94.10;;;;;;4993347;28;20245;-94
2022/12/26 09:11:39;;;;;;;7.30;2.23;;;12.50;93.90;;;;;;4993925;28;20210;-95
2022/12/26 09:14:10;;;;;;;14.37;3.17;;;12.50;93.60;;;;;;4990610;28;20199;-94
2022/12/26 09:19:28;;;;;;;11.30;2.77;;;12.40;93.00;;;;;;4993968;28;20206;-93
2022/12/26 09:24:55;;;;;;;10.23;2.67;;;12.30;92.30;;;;;;5001886;28;20284;-94
2022/12/26 09:27:23;;;;;;;8.87;1.87;;;12.30;90.80;;;;;;4994042;28;20227;-94
2022/12/26 09:29:54;;;;;;;11.03;2.33;;;12.20;91.30;;;;;;4995870;28;20205;-96
2022/12/26 09:32:23;;;;;;;12.63;2.90;;;12.20;90.90;;;;;;4990602;28;20204;-95
2022/12/26 09:34:56;;;;;;;7.37;2.13;;;12.20;90.60;;;;;;4985938;28;20202;-95
2022/12/26 09:37:24;;;;;;;7.60;2.23;;;12.10;89.20;;;;;;4985226;28;20215;-94
2022/12/26 09:39:58;;;;;;;7.27;2.23;;;12.10;90.20;;;;;;4995746;28;20225;-94
2022/12/26 09:42:40;;;;;;;8.63;2.50;;;12.00;89.60;;;;;;4989204;28;20210;-95
2022/12/26 09:45:14;;;;;;;12.63;3.30;;;12.00;88.90;;;;;;4994848;28;20202;-94
2022/12/26 09:47:58;;;;;;;9.90;2.13;;;11.90;87.10;;;;;;4983861;28;20222;-95
2022/12/26 09:50:29;;;;;;;5.70;1.60;;;11.90;85.80;;;;;;4996782;28;20212;-95
2022/12/26 09:53:08;;;;;;;8.07;2.37;;;11.80;87.10;;;;;;4997075;28;20249;-94
2022/12/26 09:55:56;;;;;;;9.20;2.33;;;11.80;85.20;;;;;;4995407;28;20206;-94
2022/12/26 09:58:28;;;;;;;11.10;2.50;;;11.70;84.70;;;;;;4993337;28;20221;-94
2022/12/26 10:01:02;;;;;;;9.67;3.00;;;11.70;87.00;;;;;;4997562;28;20631;-94
2022/12/26 10:03:38;;;;;;;15.20;4.40;;;11.70;87.60;;;;;;4998022;28;20198;-93
2022/12/26 10:06:15;;;;;;;13.23;3.40;;;11.60;88.20;;;;;;4983189;28;20217;-94
2022/12/26 10:09:12;;;;;;;13.13;3.77;;;11.60;87.00;;;;;;4984108;28;20214;-94
2022/12/26 10:12:02;;;;;;;9.50;2.67;;;11.60;88.40;;;;;;4979679;28;20734;-93
2022/12/26 10:14:41;;;;;;;8.23;2.53;;;11.60;88.60;;;;;;4985846;28;20660;-94
2022/12/26 10:17:20;;;;;;;10.20;2.27;;;11.50;89.00;;;;;;5000726;28;20304;-94
2022/12/26 10:20:13;;;;;;;10.70;2.50;;;11.60;86.80;;;;;;4996737;28;20209;-94
2022/12/26 10:23:00;;;;;;;7.13;1.73;;;11.50;86.00;;;;;;4987586;28;20218;-93
2022/12/26 10:25:50;;;;;;;19.70;4.47;;;11.50;85.40;;;;;;4990231;28;20210;-93
2022/12/26 10:28:32;;;;;;;8.17;2.37;;;11.50;86.60;;;;;;4991846;28;20200;-94
2022/12/26 10:31:07;;;;;;;6.40;2.27;;;11.50;86.30;;;;;;4995969;28;20213;-93
2022/12/26 10:33:42;;;;;;;14.23;3.60;;;11.40;85.60;;;;;;4992258;28;20198;-93
2022/12/26 10:36:22;;;;;;;11.90;3.27;;;11.40;86.10;;;;;;4990350;28;20563;-94
2022/12/26 10:38:57;;;;;;;10.30;2.80;;;11.40;86.50;;;;;;4996168;28;20217;-94
2022/12/26 10:41:27;;;;;;;10.50;2.53;;;11.40;87.90;;;;;;4997447;28;20233;-93
2022/12/26 10:44:03;;;;;;;11.47;2.37;;;11.40;87.50;;;;;;4990269;28;20206;-94
2022/12/26 10:46:58;;;;;;;11.80;2.83;;;11.40;86.50;;;;;;4995274;28;20198;-94
2022/12/26 10:49:27;;;;;;;9.30;2.40;;;11.40;84.90;;;;;;4995950;28;20220;-94
2022/12/26 10:51:59;;;;;;;7.40;2.00;;;11.40;86.10;;;;;;4993043;28;20210;-92
2022/12/26 10:54:29;;;;;;;11.83;2.80;;;11.40;86.40;;;;;;4984904;28;20568;-94
2022/12/26 10:56:58;;;;;;;9.70;2.97;;;11.40;85.70;;;;;;4992247;28;20276;-94
2022/12/26 10:59:41;;;;;;;8.80;2.07;;;11.40;86.40;;;;;;4980909;28;21010;-94
2022/12/26 11:02:24;;;;;;;9.80;2.80;;;11.40;84.40;;;;;;4988453;28;20288;-93
2022/12/26 11:05:00;;;;;;;10.00;3.13;;;11.30;83.00;;;;;;4994726;28;20272;-94
2022/12/26 11:07:33;;;;;;;17.03;3.90;;;11.40;83.60;;;;;;4980713;28;20203;-93
2022/12/26 11:10:03;;;;;;;7.03;2.10;;;11.30;82.70;;;;;;4991842;28;20221;-93
2022/12/26 11:12:40;;;;;;;9.37;2.33;;;11.30;82.90;;;;;;4992210;28;20298;-94
2022/12/26 11:15:36;;;;;;;11.83;2.83;;;11.30;81.90;;;;;;4995311;28;20257;-93
2022/12/26 11:18:22;;;;;;;13.70;3.03;;;11.30;81.60;;;;;;4997076;28;20194;-93
2022/12/26 11:20:53;;;;;;;7.53;1.87;;;11.30;81.50;;;;;;4994671;28;20277;-94
2022/12/26 11:23:26;;;;;;;7.33;2.10;;;11.30;82.90;;;;;;4994754;28;20261;-93
2022/12/26 11:25:56;;;;;;;10.20;2.13;;;11.30;82.80;;;;;;4994514;28;20206;-92
2022/12/26 11:28:30;;;;;;;8.07;2.03;;;11.30;81.20;;;;;;4988977;28;20199;-94
2022/12/26 11:31:09;;;;;;;10.50;2.97;;;11.30;81.10;;;;;;4994630;28;20211;-93
2022/12/26 11:33:47;;;;;;;7.43;2.07;;;11.30;79.90;;;;;;4996612;28;20205;-93
2022/12/26 11:36:25;;;;;;;9.07;2.63;;;11.30;79.50;;;;;;4997392;28;20209;-94
2022/12/26 11:38:57;;;;;;;11.43;2.50;;;11.30;78.60;;;;;;4996052;28;20210;-94
2022/12/26 11:41:42;;;;;;;7.47;1.97;;;11.30;79.20;;;;;;4994806;28;20730;-94
2022/12/26 11:44:22;;;;;;;7.13;2.30;;;11.30;79.90;;;;;;4994831;28;20264;-95
2022/12/26 11:47:11;;;;;;;10.33;2.63;;;11.30;78.60;;;;;;4996812;28;20705;-95
2022/12/26 11:49:57;;;;;;;11.40;2.67;;;11.30;78.40;;;;;;4998772;28;20209;-93
2022/12/26 11:52:36;;;;;;;5.30;1.63;;;11.30;77.80;;;;;;4999181;28;20293;-94
2022/12/26 11:55:26;;;;;;;9.07;1.67;;;11.30;76.50;;;;;;4994907;28;20221;-93
2022/12/26 11:58:05;;;;;;;9.23;2.40;;;11.30;75.80;;;;;;4994350;28;20206;-94
2022/12/26 12:00:36;;;;;;;6.40;2.17;;;11.30;73.80;;;;;;4990658;28;20202;-93
2022/12/26 12:03:12;;;;;;;11.13;2.77;;;11.20;74.60;;;;;;4984558;28;20234;-95
2022/12/26 12:05:49;;;;;;;7.87;1.87;;;11.20;71.70;;;;;;4988475;28;20206;-94
2022/12/26 12:08:35;;;;;;;8.67;2.53;;;11.20;73.00;;;;;;4995336;28;20225;-94
2022/12/26 12:11:28;;;;;;;6.03;2.00;;;11.20;73.30;;;;;;4994116;28;20267;-94
2022/12/26 12:14:19;;;;;;;6.67;2.50;;;11.20;73.00;;;;;;4978627;28;20217;-94
2022/12/26 12:17:01;;;;;;;12.20;2.47;;;11.20;72.30;;;;;;4992300;28;20722;-94
2022/12/26 12:19:47;;;;;;;8.43;2.37;;;11.20;72.70;;;;;;4992365;28;20260;-95
2022/12/26 12:22:42;;;;;;;10.43;2.97;;;11.20;73.00;;;;;;4994665;28;20280;-94
2022/12/26 12:25:42;;;;;;;12.77;2.23;;;11.20;72.00;;;;;;4992322;28;20300;-94
2022/12/26 12:28:40;;;;;;;9.17;2.33;;;11.20;71.90;;;;;;4984630;28;20214;-94
2022/12/26 12:31:29;;;;;;;8.07;2.50;;;11.20;72.30;;;;;;4978037;28;20530;-94
2022/12/26 12:34:07;;;;;;;9.63;2.63;;;11.20;71.70;;;;;;4991940;28;20234;-95
2022/12/26 12:36:54;;;;;;;7.30;2.40;;;11.20;71.80;;;;;;4995930;28;20226;-94
2022/12/26 12:39:35;;;;;;;6.57;1.93;;;11.20;71.10;;;;;;4980732;28;20305;-93
2022/12/26 12:42:23;;;;;;;5.30;1.40;;;11.20;71.90;;;;;;4992253;28;20245;-95
2022/12/26 12:45:19;;;;;;;6.07;1.60;;;11.20;71.10;;;;;;4995393;28;20265;-95
2022/12/26 12:48:08;;;;;;;10.43;3.00;;;11.20;71.80;;;;;;5006651;28;20232;-94
2022/12/26 12:50:56;;;;;;;5.43;1.50;;;11.30;72.70;;;;;;5001603;28;20197;-95
2022/12/26 12:53:37;;;;;;;10.57;1.67;;;11.30;72.30;;;;;;5005106;28;20238;-94
2022/12/26 12:56:26;;;;;;;8.07;1.90;;;11.40;71.80;;;;;;4990443;28;20232;-95
2022/12/26 12:59:06;;;;;;;6.13;1.57;;;11.40;71.30;;;;;;4993507;28;20206;-94
2022/12/26 13:01:42;;;;;;;3.73;1.20;;;11.50;71.40;;;;;;4986697;28;20277;-94
2022/12/26 13:04:17;;;;;;;10.23;1.50;;;11.50;72.10;;;;;;4998667;28;20221;-94
2022/12/26 13:06:49;;;;;;;5.27;1.70;;;11.60;71.60;;;;;;5003341;28;20209;-93
2022/12/26 13:09:21;;;;;;;8.80;2.10;;;11.60;70.40;;;;;;5003953;28;20229;-94
2022/12/26 13:11:53;;;;;;;7.77;2.30;;;11.60;70.40;;;;;;4976410;28;20214;-94
2022/12/26 13:14:31;;;;;;;9.77;2.40;;;11.70;68.30;;;;;;5001921;28;20206;-93
2022/12/26 13:17:13;;;;;;;3.73;1.30;;;11.70;68.10;;;;;;5005227;28;20203;-93
2022/12/26 13:19:54;;;;;;;8.07;1.67;;;11.70;68.70;;;;;;5004809;28;20210;-94
2022/12/26 13:22:27;;;;;;;7.87;1.63;;;11.70;68.90;;;;;;5003797;28;20234;-94
2022/12/26 13:25:00;;;;;;;8.63;2.70;;;11.70;68.10;;;;;;5003319;28;20206;-94
2022/12/26 13:27:30;;;;;;;6.33;2.13;;;11.70;68.90;;;;;;4984454;28;20195;-94
2022/12/26 13:30:12;;;;;;;8.33;2.40;;;11.70;68.50;;;;;;4992788;28;20206;-94
2022/12/26 13:32:44;;;;;;;7.40;1.80;;;11.80;68.60;;;;;;5000301;28;20210;-94
2022/12/26 13:35:46;;;;;;;8.53;1.93;;;11.80;69.50;;;;;;4999494;28;20792;-92
2022/12/26 13:38:16;;;;;;;11.93;2.50;;;11.80;68.20;;;;;;4995992;28;20202;-93
2022/12/26 13:40:49;;;;;;;12.57;2.57;;;11.70;68.80;;;;;;5004117;28;20229;-93
2022/12/26 13:46:57;;;;;;;8.97;2.43;;;11.70;68.90;;;;;;5001451;28;20709;-94
2022/12/26 13:49:35;;;;;;;9.63;2.00;;;11.70;66.70;;;;;;4935853;29;20208;-93
2022/12/26 13:52:31;;;;;;;10.67;2.27;;;11.60;67.90;;;;;;4995879;28;20213;-92
2022/12/26 13:55:33;;;;;;;8.37;2.33;;;11.60;67.60;;;;;;4975052;28;20211;-93
2022/12/26 13:58:43;;;;;;;7.23;2.13;;;11.60;67.90;;;;;;4967189;28;20206;-94
2022/12/26 14:01:36;;;;;;;8.57;1.67;;;11.60;67.60;;;;;;4921799;29;20304;-95
2022/12/26 14:04:27;;;;;;;6.40;1.60;;;11.50;67.50;;;;;;4923817;29;20208;-94
2022/12/26 14:07:16;;;;;;;6.97;2.13;;;11.50;67.40;;;;;;4995664;28;20203;-93
2022/12/26 14:10:02;;;;;;;8.20;1.87;;;11.50;67.40;;;;;;5008145;28;20226;-94
2022/12/26 14:12:51;;;;;;;11.67;3.30;;;11.40;66.90;;;;;;4999480;28;20202;-93
2022/12/26 14:15:28;;;;;;;17.73;3.90;;;11.40;67.40;;;;;;4992858;28;20261;-94
2022/12/26 14:18:19;;;;;;;11.53;3.30;;;11.40;67.70;;;;;;4995742;28;20660;-95
2022/12/26 14:21:00;;;;;;;6.97;2.37;;;11.30;67.60;;;;;;4995725;28;20202;-93
2022/12/26 14:23:44;;;;;;;5.30;2.03;;;11.30;68.80;;;;;;4997848;28;20257;-95
2022/12/26 14:26:28;;;;;;;8.07;2.07;;;11.30;67.80;;;;;;4997075;28;20205;-92
2022/12/26 14:29:05;;;;;;;8.37;2.27;;;11.30;68.10;;;;;;4996672;28;20212;-94
2022/12/26 14:31:48;;;;;;;19.63;2.57;;;11.20;67.90;;;;;;4996954;28;20214;-93
2022/12/26 14:34:27;;;;;;;6.10;2.03;;;11.20;67.70;;;;;;4995620;28;20230;-94
2022/12/26 14:37:05;;;;;;;5.90;1.77;;;11.20;68.00;;;;;;4997147;28;20682;-93
2022/12/26 14:39:44;;;;;;;8.57;3.00;;;11.20;67.50;;;;;;4994159;28;20665;-94
2022/12/26 14:45:52;;;;;;;7.83;2.73;;;11.20;67.20;;;;;;4997578;28;20286;-93
2022/12/26 14:48:58;;;;;;;11.47;3.07;;;11.10;67.40;;;;;;4994866;28;20198;-93
2022/12/26 14:51:35;;;;;;;8.13;2.83;;;11.10;67.80;;;;;;5000684;28;20305;-94
2022/12/26 14:54:45;;;;;;;10.43;2.57;;;11.10;68.10;;;;;;4995351;28;20214;-93
2022/12/26 14:57:46;;;;;;;8.23;2.40;;;11.10;67.40;;;;;;4971194;28;20659;-93
2022/12/26 15:00:34;;;;;;;15.90;4.07;;;11.00;67.80;;;;;;4991556;28;20306;-93
2022/12/26 15:03:37;;;;;;;6.83;2.47;;;11.00;67.60;;;;;;4994074;28;20257;-94
2022/12/26 15:06:50;;;;;;;9.37;2.87;;;11.00;67.30;;;;;;4994085;28;20206;-93
2022/12/26 15:09:50;;;;;;;6.87;2.00;;;10.90;66.90;;;;;;4995977;28;20296;-94
2022/12/26 15:12:56;;;;;;;11.27;2.90;;;10.90;67.20;;;;;;4966393;28;20211;-94
2022/12/26 15:15:53;;;;;;;12.77;3.13;;;10.90;67.20;;;;;;4926573;28;20205;-93
2022/12/26 15:18:59;;;;;;;9.03;2.37;;;10.80;67.40;;;;;;4996025;28;20270;-94
2022/12/26 15:21:53;;;;;;;11.17;2.33;;;10.80;67.70;;;;;;4967991;28;20206;-94
2022/12/26 15:24:55;;;;;;;9.77;2.40;;;10.70;67.00;;;;;;4995497;28;20210;-94
2022/12/26 15:28:12;;;;;;;11.67;2.70;;;10.70;67.00;;;;;;4996453;28;20725;-93
2022/12/26 15:30:57;;;;;;;6.63;2.13;;;10.70;67.00;;;;;;4932334;29;20721;-94
2022/12/26 15:33:34;;;;;;;11.13;3.07;;;10.60;67.20;;;;;;4988326;28;20879;-93
2022/12/26 15:36:26;;;;;;;7.87;2.47;;;10.60;67.60;;;;;;4997079;28;20240;-94
2022/12/26 15:39:00;;;;;;;10.00;2.73;;;10.60;67.60;;;;;;4996064;28;20226;-94
2022/12/26 15:41:42;;;;;;;14.70;3.07;;;10.50;68.00;;;;;;4996790;28;20232;-94
2022/12/26 15:44:31;;;;;;;7.97;2.37;;;10.50;68.20;;;;;;4996034;28;20225;-93
2022/12/26 15:47:21;;;;;;;10.53;2.87;;;10.40;67.20;;;;;;5002401;28;20257;-93
2022/12/26 15:50:04;;;;;;;12.23;2.87;;;10.40;66.70;;;;;;5004309;28;20214;-94
2022/12/26 15:52:43;;;;;;;9.67;2.50;;;10.40;67.30;;;;;;5008202;28;20214;-94
2022/12/26 15:55:40;;;;;;;12.20;3.53;;;10.30;66.60;;;;;;5012988;28;20261;-94
2022/12/26 15:58:18;;;;;;;9.13;2.47;;;10.30;66.00;;;;;;5007431;28;20206;-93